createdAt,value
2017-11-04T00:02:16.565Z,1.99
2017-11-04T00:04:44.058Z,2.09
2017-11-04T00:07:11.567Z,2.02
2017-11-04T00:09:39.081Z,1.92
2017-11-04T00:12:06.575Z,2.20
2017-11-04T00:14:37.367Z,2.18
2017-11-04T00:17:04.866Z,2.08
2017-11-04T00:19:32.362Z,2.02
2017-11-04T00:21:59.854Z,2.09
2017-11-04T00:24:27.364Z,2.11
2017-11-04T00:26:54.967Z,2.08
2017-11-04T00:29:22.489Z,2.05
2017-11-04T00:31:49.989Z,2.18
2017-11-04T00:34:17.503Z,2.52
2017-11-04T00:36:45.051Z,2.48
2017-11-04T00:39:12.565Z,2.62
2017-11-04T00:41:40.071Z,2.54
2017-11-04T00:44:07.584Z,2.48
2017-11-04T00:46:35.088Z,2.55
2017-11-04T00:49:02.590Z,2.34
2017-11-04T00:51:30.113Z,2.17
2017-11-04T00:53:57.611Z,2.13
2017-11-04T00:56:25.124Z,2.18
2017-11-04T00:58:52.617Z,2.34
2017-11-04T01:01:20.121Z,2.59
2017-11-04T01:03:47.642Z,2.43
2017-11-04T01:06:15.147Z,2.79
2017-11-04T01:08:42.663Z,2.59
2017-11-04T01:11:10.176Z,2.39
2017-11-04T01:13:37.748Z,2.46
2017-11-04T01:16:05.262Z,2.41
2017-11-04T01:18:32.776Z,2.51
2017-11-04T01:21:00.277Z,2.31
2017-11-04T01:23:27.856Z,2.41
2017-11-04T01:25:55.359Z,2.42
2017-11-04T01:28:22.877Z,2.40
2017-11-04T01:30:50.397Z,2.39
2017-11-04T01:33:17.904Z,2.26
2017-11-04T01:35:45.442Z,2.39
2017-11-04T01:38:12.935Z,2.44
2017-11-04T01:40:40.452Z,2.54
2017-11-04T01:43:07.966Z,2.50
2017-11-04T01:45:35.499Z,2.29
2017-11-04T01:48:02.993Z,2.26
2017-11-04T01:50:30.511Z,2.19
2017-11-04T01:52:58.048Z,2.25
2017-11-04T01:55:25.550Z,2.14
2017-11-04T01:57:53.075Z,2.27
2017-11-04T02:00:20.938Z,2.39
2017-11-04T02:02:48.438Z,2.33
2017-11-04T02:05:15.949Z,2.40
2017-11-04T02:07:43.459Z,2.52
2017-11-04T02:10:11.014Z,2.48
2017-11-04T02:12:38.626Z,2.42
2017-11-04T02:15:06.184Z,2.26
2017-11-04T02:17:33.932Z,2.05
2017-11-04T02:20:01.453Z,2.09
2017-11-04T02:22:28.940Z,2.17
2017-11-04T02:24:56.443Z,2.12
2017-11-04T02:27:23.955Z,2.24
2017-11-04T02:29:51.477Z,2.30
2017-11-04T02:32:18.976Z,2.23
2017-11-04T02:34:46.485Z,2.04
2017-11-04T02:37:14.010Z,1.86
2017-11-04T02:39:41.532Z,1.82
2017-11-04T02:42:09.079Z,1.85
2017-11-04T02:44:36.577Z,2.05
2017-11-04T02:47:04.079Z,2.05
2017-11-04T02:49:31.566Z,1.99
2017-11-04T02:51:59.057Z,2.02
2017-11-04T02:54:26.604Z,2.14
2017-11-04T02:56:54.108Z,2.16
2017-11-04T02:59:21.613Z,2.13
2017-11-04T03:01:49.115Z,1.93
2017-11-04T03:04:16.615Z,1.95
2017-11-04T03:06:44.128Z,1.94
2017-11-04T03:09:11.622Z,1.96
2017-11-04T03:11:39.137Z,1.96
2017-11-04T03:14:06.647Z,1.92
2017-11-04T03:16:34.177Z,1.87
2017-11-04T03:19:01.691Z,1.92
2017-11-04T03:21:29.178Z,1.97
2017-11-04T03:23:56.675Z,2.03
2017-11-04T03:26:24.185Z,2.05
2017-11-04T03:28:51.699Z,2.12
2017-11-04T03:31:19.201Z,1.88
2017-11-04T03:33:46.703Z,1.93
2017-11-04T03:36:14.211Z,2.13
2017-11-04T03:38:41.710Z,2.22
2017-11-04T03:41:09.236Z,2.46
2017-11-04T03:43:36.751Z,2.36
2017-11-04T03:46:04.241Z,2.18
2017-11-04T03:48:31.773Z,2.11
2017-11-04T03:50:59.290Z,2.02
2017-11-04T03:53:26.805Z,2.01
2017-11-04T03:55:54.323Z,2.06
2017-11-04T03:58:21.834Z,2.21
2017-11-04T04:00:49.359Z,2.48
2017-11-04T04:03:16.866Z,2.51
2017-11-04T04:05:44.390Z,2.70
2017-11-04T04:08:11.943Z,2.79
2017-11-04T04:10:39.451Z,2.81
2017-11-04T04:13:07.060Z,2.84
2017-11-04T04:15:34.571Z,2.67
2017-11-04T04:18:02.074Z,2.73
2017-11-04T04:20:29.590Z,2.89
2017-11-04T04:22:57.268Z,2.68
2017-11-04T04:25:24.768Z,2.66
2017-11-04T04:27:52.280Z,2.57
2017-11-04T04:30:19.774Z,2.66
2017-11-04T04:32:47.257Z,2.72
2017-11-04T04:35:14.766Z,2.76
2017-11-04T04:37:42.279Z,2.89
2017-11-04T04:40:10.172Z,2.65
2017-11-04T04:42:37.675Z,2.84
2017-11-04T04:45:05.183Z,2.80
2017-11-04T04:47:32.691Z,2.77
2017-11-04T04:50:00.190Z,2.74
2017-11-04T04:52:27.688Z,2.68
2017-11-04T04:54:55.187Z,2.54
2017-11-04T04:57:22.674Z,2.58
2017-11-04T04:59:50.315Z,2.64
2017-11-04T05:02:17.823Z,2.86
2017-11-04T05:04:45.337Z,2.87
2017-11-04T05:07:12.852Z,2.93
2017-11-04T05:09:40.361Z,2.97
2017-11-04T05:12:07.877Z,2.92
2017-11-04T05:14:35.382Z,2.86
2017-11-04T05:17:02.878Z,2.84
2017-11-04T05:19:30.399Z,2.89
2017-11-04T05:21:57.907Z,2.74
2017-11-04T05:24:25.417Z,2.79
2017-11-04T05:26:52.923Z,2.78
2017-11-04T05:29:20.448Z,2.67
2017-11-04T05:31:47.954Z,2.75
2017-11-04T05:34:15.451Z,2.79
2017-11-04T05:36:42.953Z,2.79
2017-11-04T05:39:10.468Z,3.03
2017-11-04T05:41:37.979Z,3.06
2017-11-04T05:44:05.491Z,2.98
2017-11-04T05:46:32.992Z,3.02
2017-11-04T05:49:00.499Z,3.07
2017-11-04T05:51:28.009Z,3.06
2017-11-04T05:53:55.530Z,3.08
2017-11-04T05:56:23.039Z,3.12
2017-11-04T05:58:50.560Z,2.96
2017-11-04T06:01:18.084Z,2.91
2017-11-04T06:03:45.597Z,3.09
2017-11-04T06:06:13.125Z,2.95
2017-11-04T06:08:40.662Z,2.96
2017-11-04T06:11:08.155Z,2.94
2017-11-04T06:13:35.650Z,2.92
2017-11-04T06:16:03.157Z,2.95
2017-11-04T06:18:30.675Z,3.24
2017-11-04T06:20:58.176Z,3.17
2017-11-04T06:23:25.675Z,3.28
2017-11-04T06:25:53.231Z,3.26
2017-11-04T06:28:20.723Z,3.24
2017-11-04T06:30:49.238Z,3.19
2017-11-04T06:33:16.785Z,3.32
2017-11-04T06:35:44.283Z,3.38
2017-11-04T06:38:11.904Z,3.48
2017-11-04T06:40:39.419Z,3.62
2017-11-04T06:43:06.927Z,3.52
2017-11-04T06:45:34.449Z,3.43
2017-11-04T06:48:01.966Z,3.39
2017-11-04T06:50:29.466Z,3.44
2017-11-04T06:52:56.979Z,3.54
2017-11-04T06:55:24.483Z,3.56
2017-11-04T06:57:51.998Z,3.75
2017-11-04T07:00:19.504Z,3.91
2017-11-04T07:02:47.013Z,3.78
2017-11-04T07:05:14.512Z,4.03
2017-11-04T07:07:42.010Z,4.26
2017-11-04T07:10:09.531Z,4.41
2017-11-04T07:12:37.026Z,4.40
2017-11-04T07:15:04.572Z,4.47
2017-11-04T07:17:32.089Z,4.32
2017-11-04T07:19:59.602Z,4.20
2017-11-04T07:22:27.106Z,4.39
2017-11-04T07:24:54.608Z,4.62
2017-11-04T07:27:22.126Z,4.83
2017-11-04T07:29:49.615Z,4.84
2017-11-04T07:32:17.154Z,5.06
2017-11-04T07:34:44.683Z,5.09
2017-11-04T07:37:12.184Z,5.11
2017-11-04T07:39:39.755Z,5.13
2017-11-04T07:42:07.257Z,5.18
2017-11-04T07:44:34.791Z,5.36
2017-11-04T07:47:02.294Z,5.45
2017-11-04T07:49:29.800Z,5.37
2017-11-04T07:51:57.293Z,5.67
2017-11-04T07:54:24.798Z,5.81
2017-11-04T07:56:52.327Z,5.86
2017-11-04T07:59:19.835Z,5.77
2017-11-04T08:01:47.347Z,6.07
2017-11-04T08:04:14.848Z,6.48
2017-11-04T08:06:42.377Z,6.18
2017-11-04T08:09:09.890Z,6.27
2017-11-04T08:11:37.414Z,6.36
2017-11-04T08:14:04.962Z,6.32
2017-11-04T08:16:32.466Z,6.60
2017-11-04T08:19:00.000Z,6.90
2017-11-04T08:21:27.529Z,6.90
2017-11-04T08:23:55.056Z,7.25
2017-11-04T08:26:22.582Z,7.24
2017-11-04T08:28:50.231Z,7.52
2017-11-04T08:31:17.748Z,7.67
2017-11-04T08:33:48.050Z,7.57
2017-11-04T08:36:15.593Z,7.51
2017-11-04T08:38:43.162Z,7.70
2017-11-04T08:41:14.455Z,7.78
2017-11-04T08:43:41.965Z,7.65
2017-11-04T08:46:09.479Z,7.97
2017-11-04T08:48:37.016Z,8.04
2017-11-04T08:51:04.532Z,8.00
2017-11-04T08:53:32.047Z,8.43
2017-11-04T08:55:59.546Z,8.58
2017-11-04T08:58:27.044Z,8.50
2017-11-04T09:00:54.567Z,8.61
2017-11-04T09:03:22.078Z,8.62
2017-11-04T09:05:49.570Z,8.66
2017-11-04T09:08:17.074Z,8.85
2017-11-04T09:10:44.590Z,9.14
2017-11-04T09:13:12.099Z,9.47
2017-11-04T09:15:39.636Z,9.66
2017-11-04T09:18:07.222Z,9.56
2017-11-04T09:20:34.732Z,9.97
2017-11-04T09:23:02.237Z,9.80
2017-11-04T09:25:29.779Z,9.92
2017-11-04T09:27:57.297Z,10.04
2017-11-04T09:30:24.789Z,10.46
2017-11-04T09:32:52.322Z,10.65
2017-11-04T09:35:19.837Z,10.91
2017-11-04T09:37:48.310Z,10.97
2017-11-04T09:40:15.869Z,11.26
2017-11-04T09:42:43.423Z,11.06
2017-11-04T09:45:10.928Z,11.20
2017-11-04T09:47:38.450Z,11.54
2017-11-04T09:50:05.994Z,12.03
2017-11-04T09:52:33.514Z,12.24
2017-11-04T09:55:01.038Z,12.62
2017-11-04T09:57:28.576Z,12.69
2017-11-04T09:59:56.090Z,12.76
2017-11-04T10:02:23.601Z,13.16
2017-11-04T10:04:51.115Z,14.08
2017-11-04T10:07:18.634Z,13.97
2017-11-04T10:09:46.168Z,13.99
2017-11-04T10:12:13.689Z,14.36
2017-11-04T10:14:41.215Z,15.03
2017-11-04T10:17:08.753Z,16.18
2017-11-04T10:19:36.276Z,17.02
2017-11-04T10:22:03.787Z,17.15
2017-11-04T10:24:31.312Z,18.90
2017-11-04T10:26:58.916Z,19.04
2017-11-04T10:29:26.477Z,20.44
2017-11-04T10:31:53.987Z,20.57
2017-11-04T10:34:21.528Z,20.48
2017-11-04T10:36:49.050Z,20.00
2017-11-04T10:39:16.592Z,20.51
2017-11-04T10:41:44.123Z,19.56
2017-11-04T10:44:11.649Z,20.45
2017-11-04T10:46:39.163Z,20.01
2017-11-04T10:49:06.683Z,22.65
2017-11-04T10:51:34.216Z,19.97
2017-11-04T10:54:01.733Z,18.97
2017-11-04T10:56:29.253Z,17.93
2017-11-04T10:58:56.764Z,17.25
2017-11-04T11:01:24.267Z,16.42
2017-11-04T11:03:51.818Z,16.36
2017-11-04T11:06:19.346Z,16.23
2017-11-04T11:08:46.858Z,15.87
2017-11-04T11:11:14.360Z,15.59
2017-11-04T11:13:41.909Z,15.85
2017-11-04T11:16:09.425Z,16.14
2017-11-04T11:18:37.037Z,16.51
2017-11-04T11:21:04.598Z,17.12
2017-11-04T11:23:32.111Z,17.18
2017-11-04T11:25:59.628Z,17.59
2017-11-04T11:28:27.268Z,18.37
2017-11-04T11:30:54.765Z,19.20
2017-11-04T11:33:22.395Z,20.48
2017-11-04T11:35:49.914Z,21.33
2017-11-04T11:38:17.411Z,22.59
2017-11-04T11:40:44.924Z,22.58
2017-11-04T11:43:12.450Z,21.15
2017-11-04T11:45:39.974Z,21.38
2017-11-04T11:48:07.489Z,20.96
2017-11-04T11:50:34.999Z,20.40
2017-11-04T11:53:02.542Z,20.00
2017-11-04T11:55:30.069Z,19.98
2017-11-04T11:57:57.618Z,20.31
2017-11-04T12:00:25.139Z,19.89
2017-11-04T12:02:52.656Z,19.32
2017-11-04T12:05:20.167Z,19.02
2017-11-04T12:07:47.697Z,19.21
2017-11-04T12:10:15.226Z,19.68
2017-11-04T12:12:42.731Z,19.80
2017-11-04T12:15:10.224Z,20.63
2017-11-04T12:17:37.756Z,20.75
2017-11-04T12:20:05.351Z,20.76
2017-11-04T12:22:32.870Z,20.20
2017-11-04T12:25:00.393Z,21.28
2017-11-04T12:27:27.898Z,21.64
2017-11-04T12:29:55.397Z,21.86
2017-11-04T12:32:22.920Z,20.62
2017-11-04T12:34:50.438Z,20.75
2017-11-04T12:37:17.941Z,20.92
2017-11-04T12:39:45.443Z,21.02
2017-11-04T12:42:12.958Z,20.64
2017-11-04T12:44:40.473Z,20.23
2017-11-04T12:47:08.083Z,21.60
2017-11-04T12:49:35.602Z,22.53
2017-11-04T12:52:03.130Z,22.00
2017-11-04T12:54:30.630Z,22.39
2017-11-04T12:56:58.139Z,20.68
2017-11-04T12:59:25.630Z,19.43
2017-11-04T13:01:53.194Z,19.41
2017-11-04T13:04:20.722Z,19.23
2017-11-04T13:06:48.210Z,18.91
2017-11-04T13:09:15.714Z,19.30
2017-11-04T13:11:43.218Z,18.99
2017-11-04T13:14:10.733Z,19.02
2017-11-04T13:16:38.259Z,19.72
2017-11-04T13:19:05.881Z,19.36
2017-11-04T13:21:33.410Z,19.71
2017-11-04T13:24:00.931Z,19.67
2017-11-04T13:26:28.468Z,19.83
2017-11-04T13:28:55.971Z,19.74
2017-11-04T13:31:23.481Z,19.59
2017-11-04T13:33:50.981Z,20.36
2017-11-04T13:36:18.491Z,20.78
2017-11-04T13:38:45.994Z,20.98
2017-11-04T13:41:13.507Z,21.39
2017-11-04T13:43:41.013Z,21.25
2017-11-04T13:46:08.530Z,21.14
2017-11-04T13:48:36.079Z,21.05
2017-11-04T13:51:03.582Z,20.56
2017-11-04T13:53:31.111Z,20.99
2017-11-04T13:55:58.626Z,20.46
2017-11-04T13:58:26.115Z,20.83
2017-11-04T14:00:53.602Z,20.91
2017-11-04T14:03:21.100Z,20.40
2017-11-04T14:05:48.624Z,21.59
2017-11-04T14:08:16.154Z,21.05
2017-11-04T14:10:43.659Z,21.32
2017-11-04T14:13:11.205Z,20.65
2017-11-04T14:15:38.711Z,19.80
2017-11-04T14:18:06.246Z,19.10
2017-11-04T14:20:33.769Z,19.02
2017-11-04T14:23:01.275Z,19.06
2017-11-04T14:25:28.797Z,19.15
2017-11-04T14:27:56.289Z,18.37
2017-11-04T14:30:24.216Z,18.23
2017-11-04T14:32:51.725Z,18.05
2017-11-04T14:35:19.219Z,17.39
2017-11-04T14:37:46.713Z,17.26
2017-11-04T14:40:14.218Z,16.87
2017-11-04T14:42:41.739Z,16.64
2017-11-04T14:45:12.713Z,16.27
2017-11-04T14:47:40.246Z,15.82
2017-11-04T14:50:07.776Z,15.50
2017-11-04T14:52:35.288Z,15.44
2017-11-04T14:55:02.798Z,15.14
2017-11-04T14:57:30.342Z,14.93
2017-11-04T14:59:57.881Z,14.81
2017-11-04T15:02:25.402Z,14.83
2017-11-04T15:04:52.942Z,14.65
2017-11-04T15:07:20.444Z,14.58
2017-11-04T15:09:47.946Z,14.48
2017-11-04T15:12:15.445Z,14.50
2017-11-04T15:14:42.942Z,14.32
2017-11-04T15:17:10.447Z,14.17
2017-11-04T15:19:37.942Z,14.16
2017-11-04T15:22:05.449Z,13.97
2017-11-04T15:24:32.936Z,13.87
2017-11-04T15:27:00.508Z,13.71
2017-11-04T15:29:28.077Z,13.42
2017-11-04T15:31:55.656Z,13.45
2017-11-04T15:34:23.172Z,13.31
2017-11-04T15:36:50.681Z,13.17
2017-11-04T15:39:18.172Z,13.12
2017-11-04T15:41:45.681Z,12.95
2017-11-04T15:44:13.182Z,12.98
2017-11-04T15:46:40.707Z,12.74
2017-11-04T15:49:08.209Z,12.45
2017-11-04T15:51:35.740Z,12.42
2017-11-04T15:54:03.225Z,12.30
2017-11-04T15:56:30.741Z,12.19
2017-11-04T15:58:58.255Z,11.91
2017-11-04T16:01:25.754Z,11.94
2017-11-04T16:03:53.310Z,11.86
2017-11-04T16:06:20.845Z,11.74
2017-11-04T16:08:48.390Z,11.71
2017-11-04T16:11:15.900Z,11.69
2017-11-04T16:13:43.416Z,11.64
2017-11-04T16:16:10.951Z,11.48
2017-11-04T16:18:38.458Z,11.27
2017-11-04T16:21:05.971Z,11.05
2017-11-04T16:23:33.474Z,11.12
2017-11-04T16:26:01.002Z,11.12
2017-11-04T16:28:28.547Z,10.88
2017-11-04T16:30:56.076Z,10.88
2017-11-04T16:33:23.610Z,10.76
2017-11-04T16:35:51.119Z,10.63
2017-11-04T16:38:18.687Z,10.55
2017-11-04T16:40:46.206Z,10.52
2017-11-04T16:43:13.695Z,10.41
2017-11-04T16:45:42.497Z,10.39
2017-11-04T16:48:10.010Z,10.26
2017-11-04T16:50:37.525Z,10.25
2017-11-04T16:53:05.039Z,10.16
2017-11-04T16:55:32.539Z,10.12
2017-11-04T16:58:00.042Z,10.24
2017-11-04T17:00:27.548Z,10.30
2017-11-04T17:02:55.070Z,10.25
2017-11-04T17:05:22.606Z,10.43
2017-11-04T17:07:50.124Z,10.28
2017-11-04T17:10:17.686Z,10.24
2017-11-04T17:12:45.212Z,10.06
2017-11-04T17:15:13.750Z,9.85
2017-11-04T17:17:41.275Z,9.90
2017-11-04T17:20:08.818Z,9.83
2017-11-04T17:22:36.334Z,9.72
2017-11-04T17:25:03.842Z,9.69
2017-11-04T17:27:31.354Z,9.70
2017-11-04T17:29:58.859Z,9.78
2017-11-04T17:32:26.370Z,10.00
2017-11-04T17:34:53.929Z,9.99
2017-11-04T17:37:21.447Z,9.88
2017-11-04T17:39:48.983Z,9.76
2017-11-04T17:42:16.513Z,9.77
2017-11-04T17:44:44.020Z,9.80
2017-11-04T17:47:11.552Z,9.76
2017-11-04T17:49:39.065Z,9.96
2017-11-04T17:52:06.589Z,10.09
2017-11-04T17:54:34.099Z,10.09
2017-11-04T17:57:01.649Z,10.09
2017-11-04T17:59:29.166Z,10.14
2017-11-04T18:01:56.705Z,10.04
2017-11-04T18:04:24.196Z,9.75
2017-11-04T18:06:51.709Z,9.77
2017-11-04T18:09:19.206Z,9.74
2017-11-04T18:11:46.718Z,9.73
2017-11-04T18:14:14.245Z,9.65
2017-11-04T18:16:41.738Z,9.57
2017-11-04T18:19:09.269Z,9.45
2017-11-04T18:21:36.771Z,9.41
2017-11-04T18:24:04.294Z,9.37
2017-11-04T18:26:31.832Z,9.38
2017-11-04T18:28:59.480Z,9.45
2017-11-04T18:31:27.004Z,9.37
2017-11-04T18:33:54.513Z,9.36
2017-11-04T18:36:22.025Z,9.32
2017-11-04T18:38:49.554Z,9.40
2017-11-04T18:41:17.061Z,9.32
2017-11-04T18:43:44.622Z,9.23
2017-11-04T18:46:12.144Z,9.14
2017-11-04T18:48:39.738Z,9.18
2017-11-04T18:51:07.252Z,9.20
2017-11-04T18:53:34.758Z,9.23
2017-11-04T18:56:02.263Z,9.20
2017-11-04T18:58:29.759Z,9.05
2017-11-04T19:00:57.265Z,8.95
2017-11-04T19:03:24.762Z,8.75
2017-11-04T19:05:52.277Z,8.72
2017-11-04T19:08:19.783Z,8.58
2017-11-04T19:10:47.312Z,8.65
2017-11-04T19:13:15.052Z,8.53
2017-11-04T19:15:42.583Z,8.33
2017-11-04T19:18:10.117Z,8.18
2017-11-04T19:20:37.649Z,8.19
2017-11-04T19:23:05.173Z,8.18
2017-11-04T19:25:32.713Z,8.21
2017-11-04T19:28:00.238Z,8.19
2017-11-04T19:30:27.875Z,8.10
2017-11-04T19:32:55.434Z,8.06
2017-11-04T19:35:22.947Z,7.99
2017-11-04T19:37:50.483Z,7.69
2017-11-04T19:40:17.984Z,7.60
2017-11-04T19:42:45.515Z,7.53
2017-11-04T19:45:13.028Z,7.64
2017-11-04T19:47:40.652Z,7.63
2017-11-04T19:50:08.210Z,7.25
2017-11-04T19:52:35.737Z,7.16
2017-11-04T19:55:03.250Z,7.17
2017-11-04T19:57:30.754Z,7.17
2017-11-04T19:59:58.273Z,7.11
2017-11-04T20:02:25.798Z,7.01
2017-11-04T20:04:53.331Z,7.09
2017-11-04T20:07:20.878Z,7.21
2017-11-04T20:09:48.397Z,7.22
2017-11-04T20:12:15.945Z,7.19
2017-11-04T20:14:43.487Z,7.15
2017-11-04T20:17:11.003Z,6.89
2017-11-04T20:19:38.530Z,6.96
2017-11-04T20:22:06.056Z,7.00
2017-11-04T20:24:33.587Z,7.08
2017-11-04T20:27:01.095Z,7.02
2017-11-04T20:29:28.620Z,6.72
2017-11-04T20:31:56.138Z,6.62
2017-11-04T20:34:23.660Z,6.67
2017-11-04T20:36:51.162Z,6.56
2017-11-04T20:39:18.676Z,6.61
2017-11-04T20:41:46.196Z,6.61
2017-11-04T20:44:13.818Z,6.57
2017-11-04T20:46:41.354Z,6.37
2017-11-04T20:49:08.870Z,6.05
2017-11-04T20:51:36.377Z,6.04
2017-11-04T20:54:03.876Z,6.12
2017-11-04T20:56:31.414Z,6.19
2017-11-04T20:58:59.028Z,6.30
2017-11-04T21:01:26.558Z,6.34
2017-11-04T21:03:54.084Z,6.37
2017-11-04T21:06:21.634Z,6.37
2017-11-04T21:08:49.168Z,6.27
2017-11-04T21:11:16.692Z,6.13
2017-11-04T21:13:44.229Z,6.02
2017-11-04T21:16:11.738Z,5.94
2017-11-04T21:18:39.265Z,5.85
2017-11-04T21:21:06.927Z,5.87
2017-11-04T21:23:34.446Z,5.84
2017-11-04T21:26:01.964Z,5.83
2017-11-04T21:28:29.499Z,5.90
2017-11-04T21:30:57.029Z,5.96
2017-11-04T21:33:24.589Z,5.87
2017-11-04T21:35:52.110Z,5.50
2017-11-04T21:38:19.668Z,5.39
2017-11-04T21:40:47.198Z,5.41
2017-11-04T21:43:14.713Z,5.36
2017-11-04T21:45:42.226Z,5.35
2017-11-04T21:48:09.733Z,5.46
2017-11-04T21:50:37.260Z,5.53
2017-11-04T21:53:04.810Z,5.53
2017-11-04T21:55:32.325Z,5.58
2017-11-04T21:57:59.848Z,5.62
2017-11-04T22:00:27.387Z,5.59
2017-11-04T22:02:54.899Z,5.67
2017-11-04T22:05:22.403Z,5.65
2017-11-04T22:07:49.968Z,5.65
2017-11-04T22:10:17.464Z,5.38
2017-11-04T22:12:45.009Z,5.30
2017-11-04T22:15:12.669Z,5.36
2017-11-04T22:17:40.277Z,5.46
2017-11-04T22:20:07.788Z,5.45
2017-11-04T22:22:35.292Z,4.95
2017-11-04T22:25:02.806Z,4.96
2017-11-04T22:27:30.321Z,5.18
2017-11-04T22:29:57.833Z,5.23
2017-11-04T22:32:25.386Z,5.21
2017-11-04T22:34:52.935Z,5.24
2017-11-04T22:37:20.439Z,5.14
2017-11-04T22:39:47.955Z,5.11
2017-11-04T22:42:15.461Z,5.15
2017-11-04T22:44:42.975Z,5.19
2017-11-04T22:47:10.496Z,5.22
2017-11-04T22:49:38.110Z,5.26
2017-11-04T22:52:05.605Z,5.08
2017-11-04T22:54:33.112Z,5.24
2017-11-04T22:57:00.631Z,5.29
2017-11-04T22:59:28.130Z,5.37
2017-11-04T23:01:55.637Z,5.11
2017-11-04T23:04:23.134Z,5.02
2017-11-04T23:06:50.662Z,5.29
2017-11-04T23:09:18.208Z,5.47
2017-11-04T23:11:45.739Z,5.48
2017-11-04T23:14:13.255Z,5.30
2017-11-04T23:16:40.767Z,5.25
2017-11-04T23:19:08.294Z,5.37
2017-11-04T23:21:35.803Z,5.37
2017-11-04T23:24:03.289Z,5.46
2017-11-04T23:26:30.729Z,5.54
2017-11-04T23:28:58.188Z,5.60
2017-11-04T23:31:25.664Z,5.74
2017-11-04T23:33:53.142Z,5.75
2017-11-04T23:36:20.615Z,5.65
2017-11-04T23:38:48.098Z,5.88
2017-11-04T23:41:15.548Z,5.95
2017-11-04T23:43:43.014Z,6.23
2017-11-04T23:46:10.473Z,6.15
2017-11-04T23:48:37.965Z,6.25
2017-11-04T23:51:05.430Z,6.16
2017-11-04T23:53:32.875Z,6.25
2017-11-04T23:56:00.383Z,6.19
2017-11-04T23:58:27.883Z,6.18
